createdAt,value
2023-04-09T00:03:37.876Z,6.90
2023-04-09T00:07:44.599Z,6.90
2023-04-09T00:11:50.427Z,6.90
2023-04-09T00:15:56.129Z,6.90
2023-04-09T00:20:01.713Z,6.90
2023-04-09T00:24:07.349Z,6.80
2023-04-09T00:28:13.163Z,6.80
2023-04-09T00:32:18.676Z,6.80
2023-04-09T00:36:25.936Z,6.80
2023-04-09T00:40:32.686Z,6.80
2023-04-09T00:44:38.250Z,6.90
2023-04-09T00:48:43.957Z,6.90
2023-04-09T00:52:49.640Z,6.90
2023-04-09T00:56:56.747Z,6.90
2023-04-09T01:01:02.359Z,6.90
2023-04-09T01:05:08.545Z,6.80
2023-04-09T01:09:42.782Z,6.80
2023-04-09T01:14:06.320Z,6.80
2023-04-09T01:18:45.657Z,6.80
2023-04-09T01:23:37.797Z,6.80
2023-04-09T01:28:03.978Z,6.80
2023-04-09T01:32:10.897Z,6.80
2023-04-09T01:36:16.913Z,6.80
2023-04-09T01:40:22.786Z,6.80
2023-04-09T01:44:29.165Z,6.80
2023-04-09T01:48:35.216Z,6.80
2023-04-09T01:52:41.201Z,6.90
2023-04-09T01:56:48.513Z,6.80
2023-04-09T02:01:06.800Z,6.90
2023-04-09T02:05:15.730Z,6.90
2023-04-09T02:09:21.715Z,6.90
2023-04-09T02:13:29.254Z,7.00
2023-04-09T02:17:35.337Z,7.00
2023-04-09T02:21:40.910Z,6.90
2023-04-09T02:25:46.594Z,6.90
2023-04-09T02:29:52.083Z,6.90
2023-04-09T02:33:57.614Z,6.90
2023-04-09T02:38:03.539Z,6.90
2023-04-09T02:42:09.119Z,7.00
2023-04-09T02:46:14.651Z,6.90
2023-04-09T02:50:20.312Z,7.00
2023-04-09T02:54:25.788Z,7.00
2023-04-09T02:58:31.353Z,7.00
2023-04-09T03:02:37.181Z,7.00
2023-04-09T03:06:42.771Z,7.00
2023-04-09T03:10:48.430Z,7.00
2023-04-09T03:14:54.068Z,7.00
2023-04-09T03:18:59.505Z,7.00
2023-04-09T03:23:05.254Z,7.00
2023-04-09T03:27:10.822Z,7.00
2023-04-09T03:31:16.472Z,7.00
2023-04-09T03:35:22.162Z,7.00
2023-04-09T03:39:30.837Z,6.90
2023-04-09T03:43:36.425Z,7.00
2023-04-09T03:47:41.955Z,7.00
2023-04-09T03:51:47.687Z,7.00
2023-04-09T03:55:53.157Z,7.00
2023-04-09T03:59:59.818Z,7.00
2023-04-09T04:04:05.631Z,7.00
2023-04-09T04:08:11.408Z,7.00
2023-04-09T04:12:16.919Z,7.00
2023-04-09T04:16:22.779Z,7.00
2023-04-09T04:20:28.294Z,7.00
2023-04-09T04:24:33.789Z,7.00
2023-04-09T04:28:40.388Z,7.00
2023-04-09T04:32:46.031Z,6.90
2023-04-09T04:36:51.549Z,6.90
2023-04-09T04:40:57.061Z,6.90
2023-04-09T04:45:02.608Z,7.00
2023-04-09T04:49:08.218Z,7.00
2023-04-09T04:53:13.831Z,7.00
2023-04-09T04:57:19.378Z,7.00
2023-04-09T05:01:25.284Z,7.00
2023-04-09T05:05:31.081Z,7.00
2023-04-09T05:09:36.583Z,7.10
2023-04-09T05:13:42.134Z,7.10
2023-04-09T05:17:47.719Z,7.10
2023-04-09T05:21:53.323Z,7.10
2023-04-09T05:25:58.799Z,7.10
2023-04-09T05:30:04.642Z,7.10
2023-04-09T05:34:10.314Z,7.10
2023-04-09T05:38:15.817Z,7.10
2023-04-09T05:42:22.237Z,7.20
2023-04-09T05:46:29.013Z,7.10
2023-04-09T05:50:43.691Z,7.20
2023-04-09T05:54:56.885Z,7.20
2023-04-09T05:59:02.439Z,7.20
2023-04-09T06:03:09.668Z,7.30
2023-04-09T06:07:15.331Z,7.30
2023-04-09T06:11:22.922Z,7.30
2023-04-09T06:15:28.643Z,7.20
2023-04-09T06:19:34.275Z,7.30
2023-04-09T06:23:40.345Z,7.30
2023-04-09T06:27:46.034Z,7.40
2023-04-09T06:31:51.571Z,7.40
2023-04-09T06:35:57.225Z,7.40
2023-04-09T06:40:03.309Z,7.50
2023-04-09T06:44:08.997Z,7.50
2023-04-09T06:48:14.712Z,7.60
2023-04-09T06:52:20.301Z,7.70
2023-04-09T06:56:25.815Z,7.70
2023-04-09T07:00:31.712Z,7.70
2023-04-09T07:04:37.559Z,7.70
2023-04-09T07:08:43.212Z,7.80
2023-04-09T07:12:48.709Z,7.90
2023-04-09T07:16:54.254Z,8.00
2023-04-09T07:21:00.185Z,8.10
2023-04-09T07:25:06.494Z,8.20
2023-04-09T07:29:12.127Z,8.30
2023-04-09T07:33:17.643Z,8.40
2023-04-09T07:37:23.481Z,8.50
2023-04-09T07:41:29.023Z,8.50
2023-04-09T07:45:34.949Z,8.60
2023-04-09T07:49:40.875Z,8.70
2023-04-09T07:53:46.528Z,8.80
2023-04-09T07:57:52.005Z,8.80
2023-04-09T08:01:57.889Z,9.00
2023-04-09T08:06:03.813Z,9.00
2023-04-09T08:10:15.221Z,9.00
2023-04-09T08:14:21.389Z,9.10
2023-04-09T08:18:26.981Z,9.20
2023-04-09T08:22:32.662Z,9.30
2023-04-09T08:26:42.310Z,9.50
2023-04-09T08:30:48.479Z,9.80
2023-04-09T08:34:53.985Z,9.80
2023-04-09T08:39:00.613Z,9.90
2023-04-09T08:43:07.486Z,9.90
2023-04-09T08:47:13.682Z,10.10
2023-04-09T08:51:24.542Z,10.20
2023-04-09T08:55:31.299Z,10.20
2023-04-09T08:59:37.861Z,10.30
2023-04-09T09:04:05.459Z,10.30
2023-04-09T09:08:14.393Z,10.40
2023-04-09T09:12:38.232Z,10.40
2023-04-09T09:16:56.861Z,10.60
2023-04-09T09:21:13.374Z,10.60
2023-04-09T09:25:23.217Z,10.70
2023-04-09T09:29:28.802Z,10.70
2023-04-09T09:33:34.385Z,10.80
2023-04-09T09:37:39.860Z,10.90
2023-04-09T09:41:47.402Z,10.80
2023-04-09T09:45:54.045Z,10.70
2023-04-09T09:49:59.669Z,10.60
2023-04-09T09:54:09.247Z,10.60
2023-04-09T09:58:27.333Z,10.60
2023-04-09T10:02:44.403Z,10.70
2023-04-09T10:06:52.884Z,10.60
2023-04-09T10:10:59.149Z,10.70
2023-04-09T10:15:06.291Z,10.80
2023-04-09T10:19:14.692Z,10.80
2023-04-09T10:23:33.179Z,10.90
2023-04-09T10:27:38.892Z,10.90
2023-04-09T10:31:55.818Z,10.90
2023-04-09T10:36:12.135Z,10.90
2023-04-09T10:40:21.799Z,10.90
2023-04-09T10:44:31.915Z,10.80
2023-04-09T10:48:37.531Z,10.90
2023-04-09T10:52:44.365Z,11.00
2023-04-09T10:57:08.617Z,11.10
2023-04-09T11:01:22.728Z,10.90
2023-04-09T11:05:36.483Z,10.80
2023-04-09T11:09:42.272Z,10.80
2023-04-09T11:13:47.735Z,10.90
2023-04-09T11:17:53.567Z,10.70
2023-04-09T11:21:59.466Z,10.80
2023-04-09T11:26:05.363Z,10.80
2023-04-09T11:30:11.338Z,10.90
2023-04-09T11:34:17.558Z,11.00
2023-04-09T11:38:23.536Z,11.00
2023-04-09T11:42:32.058Z,11.10
2023-04-09T11:46:39.173Z,11.20
2023-04-09T11:50:45.819Z,11.20
2023-04-09T11:54:51.875Z,11.10
2023-04-09T11:58:57.541Z,11.00
2023-04-09T12:03:05.391Z,11.00
2023-04-09T12:07:11.619Z,11.20
2023-04-09T12:11:17.135Z,11.20
2023-04-09T12:15:26.126Z,11.30
2023-04-09T12:19:31.897Z,11.40
2023-04-09T12:23:37.552Z,11.50
2023-04-09T12:27:43.260Z,11.50
2023-04-09T12:31:48.890Z,11.60
2023-04-09T12:35:56.096Z,11.70
2023-04-09T12:40:01.835Z,11.80
2023-04-09T12:44:07.939Z,11.80
2023-04-09T12:48:16.520Z,11.90
2023-04-09T12:52:22.623Z,12.00
2023-04-09T12:56:29.826Z,11.90
2023-04-09T13:00:35.542Z,12.00
2023-04-09T13:04:41.411Z,12.10
2023-04-09T13:08:47.391Z,12.20
2023-04-09T13:12:53.103Z,12.40
2023-04-09T13:16:58.946Z,12.40
2023-04-09T13:21:04.556Z,12.40
2023-04-09T13:25:10.312Z,12.50
2023-04-09T13:29:16.644Z,12.60
2023-04-09T13:33:22.419Z,12.60
2023-04-09T13:37:27.951Z,12.70
2023-04-09T13:41:36.739Z,12.70
2023-04-09T13:45:42.184Z,12.70
2023-04-09T13:49:47.723Z,12.80
2023-04-09T13:53:53.363Z,12.90
2023-04-09T13:57:58.918Z,13.00
2023-04-09T14:02:05.153Z,13.00
2023-04-09T14:06:10.949Z,12.90
2023-04-09T14:10:16.816Z,12.90
2023-04-09T14:14:22.440Z,13.00
2023-04-09T14:18:27.929Z,13.00
2023-04-09T14:22:33.487Z,13.10
2023-04-09T14:26:39.009Z,13.10
2023-04-09T14:30:44.597Z,13.00
2023-04-09T14:34:50.381Z,12.90
2023-04-09T14:38:57.744Z,12.90
2023-04-09T14:43:03.797Z,12.90
2023-04-09T14:47:09.275Z,12.80
2023-04-09T14:51:14.858Z,12.70
2023-04-09T14:55:21.117Z,12.60
2023-04-09T14:59:27.115Z,12.50
2023-04-09T15:03:32.838Z,12.60
2023-04-09T15:07:38.858Z,12.70
2023-04-09T15:11:44.304Z,12.50
2023-04-09T15:15:50.128Z,12.50
2023-04-09T15:19:55.711Z,12.50
2023-04-09T15:24:01.479Z,12.60
2023-04-09T15:28:07.237Z,12.50
2023-04-09T15:32:12.739Z,12.60
2023-04-09T15:36:18.497Z,12.40
2023-04-09T15:40:24.235Z,12.40
2023-04-09T15:44:29.753Z,12.30
2023-04-09T15:48:35.336Z,12.30
2023-04-09T15:52:41.234Z,12.20
2023-04-09T15:56:46.774Z,12.10
2023-04-09T16:00:52.411Z,12.10
2023-04-09T16:04:57.911Z,12.10
2023-04-09T16:09:03.896Z,12.20
2023-04-09T16:13:09.457Z,12.30
2023-04-09T16:17:15.010Z,12.50
2023-04-09T16:21:20.589Z,12.60
2023-04-09T16:25:26.180Z,12.80
2023-04-09T16:29:31.691Z,12.90
2023-04-09T16:33:37.242Z,13.00
2023-04-09T16:37:42.782Z,12.90
2023-04-09T16:41:49.358Z,12.70
2023-04-09T16:45:54.813Z,12.80
2023-04-09T16:50:00.398Z,12.80
2023-04-09T16:54:06.264Z,12.70
2023-04-09T16:58:11.823Z,12.60
2023-04-09T17:02:21.713Z,12.40
2023-04-09T17:06:27.428Z,12.30
2023-04-09T17:10:33.223Z,12.40
2023-04-09T17:14:41.761Z,12.30
2023-04-09T17:18:47.673Z,12.20
2023-04-09T17:22:53.391Z,12.10
2023-04-09T17:26:58.854Z,12.10
2023-04-09T17:31:12.233Z,12.00
2023-04-09T17:35:17.783Z,12.00
2023-04-09T17:39:29.282Z,11.80
2023-04-09T17:43:34.830Z,11.70
2023-04-09T17:47:40.793Z,11.60
2023-04-09T17:51:46.480Z,11.60
2023-04-09T17:55:52.079Z,11.40
2023-04-09T17:59:57.573Z,11.40
2023-04-09T18:04:03.389Z,11.20
2023-04-09T18:08:09.124Z,11.10
2023-04-09T18:12:14.675Z,11.00
2023-04-09T18:16:23.121Z,10.80
2023-04-09T18:20:28.911Z,10.70
2023-04-09T18:24:35.169Z,10.60
2023-04-09T18:28:40.910Z,10.50
2023-04-09T18:32:48.263Z,10.30
2023-04-09T18:36:54.828Z,10.20
2023-04-09T18:41:01.566Z,10.10
2023-04-09T18:45:08.063Z,9.90
2023-04-09T18:49:13.645Z,9.80
2023-04-09T18:53:19.120Z,9.70
2023-04-09T18:57:24.583Z,9.60
2023-04-09T19:01:30.191Z,9.50
2023-04-09T19:05:36.258Z,9.40
2023-04-09T19:09:41.833Z,9.40
2023-04-09T19:13:47.367Z,9.30
2023-04-09T19:17:53.835Z,9.20
2023-04-09T19:21:59.615Z,9.20
2023-04-09T19:26:05.625Z,9.10
2023-04-09T19:30:12.054Z,9.00
2023-04-09T19:34:17.588Z,8.90
2023-04-09T19:38:23.494Z,8.80
2023-04-09T19:42:29.023Z,8.70
2023-04-09T19:46:34.760Z,8.70
2023-04-09T19:50:41.220Z,8.50
2023-04-09T19:54:47.392Z,8.50
2023-04-09T19:58:53.072Z,8.40
2023-04-09T20:02:59.046Z,8.30
2023-04-09T20:07:04.564Z,8.20
2023-04-09T20:11:17.521Z,8.20
2023-04-09T20:15:23.069Z,8.20
2023-04-09T20:19:28.633Z,8.10
2023-04-09T20:23:34.096Z,8.00
2023-04-09T20:27:39.697Z,7.90
2023-04-09T20:31:45.248Z,7.90
2023-04-09T20:35:52.344Z,7.90
2023-04-09T20:39:59.811Z,7.80
2023-04-09T20:44:06.201Z,7.70
2023-04-09T20:48:12.065Z,7.70
2023-04-09T20:52:17.873Z,7.60
2023-04-09T20:56:23.778Z,7.50
2023-04-09T21:00:29.784Z,7.50
2023-04-09T21:04:35.366Z,7.50
2023-04-09T21:08:42.737Z,7.50
2023-04-09T21:12:48.424Z,7.40
2023-04-09T21:16:55.744Z,7.40
2023-04-09T21:21:02.387Z,7.40
2023-04-09T21:25:08.391Z,7.30
2023-04-09T21:29:13.864Z,7.20
2023-04-09T21:33:19.466Z,7.10
2023-04-09T21:37:24.948Z,7.00
2023-04-09T21:41:30.674Z,6.90
2023-04-09T21:45:36.600Z,6.80
2023-04-09T21:49:43.077Z,6.80
2023-04-09T21:53:48.601Z,6.70
2023-04-09T21:57:55.347Z,6.60
2023-04-09T22:02:00.869Z,6.60
2023-04-09T22:06:10.033Z,6.60
2023-04-09T22:10:15.602Z,6.50
2023-04-09T22:14:22.223Z,6.50
2023-04-09T22:18:27.789Z,6.40
2023-04-09T22:22:33.752Z,6.30
2023-04-09T22:26:40.910Z,6.30
2023-04-09T22:30:46.472Z,6.20
2023-04-09T22:34:52.677Z,6.20
2023-04-09T22:38:58.203Z,6.10
2023-04-09T22:43:03.742Z,6.00
2023-04-09T22:47:09.284Z,5.90
2023-04-09T22:51:15.618Z,5.90
2023-04-09T22:55:23.359Z,5.80
2023-04-09T22:59:37.301Z,5.80
2023-04-09T23:03:45.352Z,5.80
2023-04-09T23:07:51.330Z,5.70
2023-04-09T23:11:57.161Z,5.60
2023-04-09T23:16:10.552Z,5.60
2023-04-09T23:20:17.130Z,5.50
2023-04-09T23:24:22.785Z,5.50
2023-04-09T23:28:29.135Z,5.40
2023-04-09T23:32:34.898Z,5.30
2023-04-09T23:36:40.510Z,5.20
2023-04-09T23:40:49.286Z,5.20
2023-04-09T23:44:54.870Z,5.20
2023-04-09T23:49:00.552Z,5.00
2023-04-09T23:53:06.774Z,5.00
2023-04-09T23:57:12.475Z,5.10
